sensor_id;sensor_type;location;lat;lon;timestamp;temperature;humidity
16479;DHT22;8350;52.316;10.530;2023-05-02T00:01:56;12.90;1.00
16479;DHT22;8350;52.316;10.530;2023-05-02T00:04:23;12.80;1.00
16479;DHT22;8350;52.316;10.530;2023-05-02T00:06:50;12.80;1.00
16479;DHT22;8350;52.316;10.530;2023-05-02T00:09:20;12.80;1.00
16479;DHT22;8350;52.316;10.530;2023-05-02T00:11:47;12.80;1.00
16479;DHT22;8350;52.316;10.530;2023-05-02T00:14:14;12.80;1.00
16479;DHT22;8350;52.316;10.530;2023-05-02T00:16:43;12.80;1.00
16479;DHT22;8350;52.316;10.530;2023-05-02T00:19:10;12.80;1.00
16479;DHT22;8350;52.316;10.530;2023-05-02T00:21:37;12.70;1.00
16479;DHT22;8350;52.316;10.530;2023-05-02T00:24:06;12.60;1.00
16479;DHT22;8350;52.316;10.530;2023-05-02T00:26:36;12.70;1.00
16479;DHT22;8350;52.316;10.530;2023-05-02T00:29:03;12.60;1.00
16479;DHT22;8350;52.316;10.530;2023-05-02T00:31:30;12.60;1.00
16479;DHT22;8350;52.316;10.530;2023-05-02T00:33:58;12.60;1.00
16479;DHT22;8350;52.316;10.530;2023-05-02T00:36:28;12.70;1.00
16479;DHT22;8350;52.316;10.530;2023-05-02T00:38:55;12.60;1.00
16479;DHT22;8350;52.316;10.530;2023-05-02T00:41:22;12.60;1.00
16479;DHT22;8350;52.316;10.530;2023-05-02T00:43:53;12.50;1.00
16479;DHT22;8350;52.316;10.530;2023-05-02T00:46:20;12.40;1.00
16479;DHT22;8350;52.316;10.530;2023-05-02T00:48:47;12.30;1.00
16479;DHT22;8350;52.316;10.530;2023-05-02T00:51:17;12.30;1.00
16479;DHT22;8350;52.316;10.530;2023-05-02T00:53:44;12.30;1.00
16479;DHT22;8350;52.316;10.530;2023-05-02T00:56:11;12.30;1.00
16479;DHT22;8350;52.316;10.530;2023-05-02T00:58:39;12.30;1.00
16479;DHT22;8350;52.316;10.530;2023-05-02T01:01:12;12.30;1.00
16479;DHT22;8350;52.316;10.530;2023-05-02T01:03:54;12.20;1.00
16479;DHT22;8350;52.316;10.530;2023-05-02T01:06:44;12.20;1.00
16479;DHT22;8350;52.316;10.530;2023-05-02T01:09:25;12.20;1.00
16479;DHT22;8350;52.316;10.530;2023-05-02T01:12:00;12.20;1.00
16479;DHT22;8350;52.316;10.530;2023-05-02T01:14:30;12.20;1.00
16479;DHT22;8350;52.316;10.530;2023-05-02T01:17:02;12.20;1.00
16479;DHT22;8350;52.316;10.530;2023-05-02T01:19:35;12.10;1.00
16479;DHT22;8350;52.316;10.530;2023-05-02T01:22:06;12.10;1.00
16479;DHT22;8350;52.316;10.530;2023-05-02T01:24:38;12.10;1.00
16479;DHT22;8350;52.316;10.530;2023-05-02T01:27:14;12.10;1.00
16479;DHT22;8350;52.316;10.530;2023-05-02T01:29:45;12.20;1.00
16479;DHT22;8350;52.316;10.530;2023-05-02T01:32:15;12.10;1.00
16479;DHT22;8350;52.316;10.530;2023-05-02T01:34:43;12.10;1.00
16479;DHT22;8350;52.316;10.530;2023-05-02T01:37:12;12.10;1.00
16479;DHT22;8350;52.316;10.530;2023-05-02T01:39:41;12.00;1.00
16479;DHT22;8350;52.316;10.530;2023-05-02T01:42:10;12.00;1.00
16479;DHT22;8350;52.316;10.530;2023-05-02T01:44:38;12.00;1.00
16479;DHT22;8350;52.316;10.530;2023-05-02T01:47:09;12.00;1.00
16479;DHT22;8350;52.316;10.530;2023-05-02T01:49:37;11.90;1.00
16479;DHT22;8350;52.316;10.530;2023-05-02T01:52:07;11.90;1.00
16479;DHT22;8350;52.316;10.530;2023-05-02T01:54:40;11.80;1.00
16479;DHT22;8350;52.316;10.530;2023-05-02T01:57:09;11.70;1.00
16479;DHT22;8350;52.316;10.530;2023-05-02T01:59:40;11.70;1.00
16479;DHT22;8350;52.316;10.530;2023-05-02T02:02:10;11.70;1.00
16479;DHT22;8350;52.316;10.530;2023-05-02T02:04:39;11.60;1.00
16479;DHT22;8350;52.316;10.530;2023-05-02T02:07:09;11.60;1.00
16479;DHT22;8350;52.316;10.530;2023-05-02T02:09:37;11.60;1.00
16479;DHT22;8350;52.316;10.530;2023-05-02T02:12:05;11.60;1.00
16479;DHT22;8350;52.316;10.530;2023-05-02T02:14:35;11.60;1.00
16479;DHT22;8350;52.316;10.530;2023-05-02T02:17:08;11.60;1.00
16479;DHT22;8350;52.316;10.530;2023-05-02T02:19:41;11.50;1.00
16479;DHT22;8350;52.316;10.530;2023-05-02T02:22:09;11.50;1.00
16479;DHT22;8350;52.316;10.530;2023-05-02T02:24:38;11.50;1.00
16479;DHT22;8350;52.316;10.530;2023-05-02T02:27:06;11.50;1.00
16479;DHT22;8350;52.316;10.530;2023-05-02T02:29:33;11.50;1.00
16479;DHT22;8350;52.316;10.530;2023-05-02T02:32:00;11.50;1.00
16479;DHT22;8350;52.316;10.530;2023-05-02T02:34:28;11.50;1.00
16479;DHT22;8350;52.316;10.530;2023-05-02T02:36:59;11.40;1.00
16479;DHT22;8350;52.316;10.530;2023-05-02T02:39:37;11.40;1.00
16479;DHT22;8350;52.316;10.530;2023-05-02T02:42:10;11.40;1.00
16479;DHT22;8350;52.316;10.530;2023-05-02T02:44:46;11.40;1.00
16479;DHT22;8350;52.316;10.530;2023-05-02T02:47:20;11.40;1.00
16479;DHT22;8350;52.316;10.530;2023-05-02T02:49:56;11.30;1.00
16479;DHT22;8350;52.316;10.530;2023-05-02T02:52:39;11.30;1.00
16479;DHT22;8350;52.316;10.530;2023-05-02T02:55:14;11.30;1.00
16479;DHT22;8350;52.316;10.530;2023-05-02T02:57:48;11.30;1.00
16479;DHT22;8350;52.316;10.530;2023-05-02T03:00:19;11.30;1.00
16479;DHT22;8350;52.316;10.530;2023-05-02T03:02:47;11.30;1.00
16479;DHT22;8350;52.316;10.530;2023-05-02T03:05:14;11.20;1.00
16479;DHT22;8350;52.316;10.530;2023-05-02T03:07:43;11.30;1.00
16479;DHT22;8350;52.316;10.530;2023-05-02T03:10:10;11.20;1.00
16479;DHT22;8350;52.316;10.530;2023-05-02T03:12:37;11.20;1.00
16479;DHT22;8350;52.316;10.530;2023-05-02T03:15:16;11.30;1.00
16479;DHT22;8350;52.316;10.530;2023-05-02T03:17:49;11.30;1.00
16479;DHT22;8350;52.316;10.530;2023-05-02T03:20:18;11.20;1.00
16479;DHT22;8350;52.316;10.530;2023-05-02T03:22:47;11.20;1.00
16479;DHT22;8350;52.316;10.530;2023-05-02T03:25:14;11.10;1.00
16479;DHT22;8350;52.316;10.530;2023-05-02T03:27:41;11.10;1.00
16479;DHT22;8350;52.316;10.530;2023-05-02T03:30:08;11.10;1.00
16479;DHT22;8350;52.316;10.530;2023-05-02T03:32:36;11.10;1.00
16479;DHT22;8350;52.316;10.530;2023-05-02T03:35:03;11.20;1.00
16479;DHT22;8350;52.316;10.530;2023-05-02T03:37:30;11.10;1.00
16479;DHT22;8350;52.316;10.530;2023-05-02T03:39:58;11.10;1.00
16479;DHT22;8350;52.316;10.530;2023-05-02T03:42:25;11.10;1.00
16479;DHT22;8350;52.316;10.530;2023-05-02T03:44:53;11.10;1.00
16479;DHT22;8350;52.316;10.530;2023-05-02T03:47:22;11.10;1.00
16479;DHT22;8350;52.316;10.530;2023-05-02T03:49:49;11.00;1.00
16479;DHT22;8350;52.316;10.530;2023-05-02T03:52:19;11.10;1.00
16479;DHT22;8350;52.316;10.530;2023-05-02T03:54:46;11.00;1.00
16479;DHT22;8350;52.316;10.530;2023-05-02T03:57:15;11.00;1.00
16479;DHT22;8350;52.316;10.530;2023-05-02T03:59:42;11.00;1.00
16479;DHT22;8350;52.316;10.530;2023-05-02T04:02:10;11.10;1.00
16479;DHT22;8350;52.316;10.530;2023-05-02T04:04:37;11.00;1.00
16479;DHT22;8350;52.316;10.530;2023-05-02T04:07:05;11.00;1.00
16479;DHT22;8350;52.316;10.530;2023-05-02T04:09:32;10.90;2.70
16479;DHT22;8350;52.316;10.530;2023-05-02T04:11:59;10.90;11.90
16479;DHT22;8350;52.316;10.530;2023-05-02T04:14:29;11.00;11.40
16479;DHT22;8350;52.316;10.530;2023-05-02T04:16:56;10.90;18.30
16479;DHT22;8350;52.316;10.530;2023-05-02T04:19:23;10.90;19.00
16479;DHT22;8350;52.316;10.530;2023-05-02T04:21:49;11.00;20.60
16479;DHT22;8350;52.316;10.530;2023-05-02T04:24:16;11.00;25.80
16479;DHT22;8350;52.316;10.530;2023-05-02T04:26:43;10.90;23.90
16479;DHT22;8350;52.316;10.530;2023-05-02T04:29:12;10.90;24.80
16479;DHT22;8350;52.316;10.530;2023-05-02T04:31:40;10.90;29.50
16479;DHT22;8350;52.316;10.530;2023-05-02T04:34:07;11.00;26.70
16479;DHT22;8350;52.316;10.530;2023-05-02T04:36:37;11.10;19.60
16479;DHT22;8350;52.316;10.530;2023-05-02T04:39:04;11.10;11.20
16479;DHT22;8350;52.316;10.530;2023-05-02T04:41:32;11.10;5.50
16479;DHT22;8350;52.316;10.530;2023-05-02T04:43:59;11.10;8.90
16479;DHT22;8350;52.316;10.530;2023-05-02T04:46:26;11.10;8.10
16479;DHT22;8350;52.316;10.530;2023-05-02T04:48:54;11.10;16.40
16479;DHT22;8350;52.316;10.530;2023-05-02T04:51:21;11.10;23.80
16479;DHT22;8350;52.316;10.530;2023-05-02T04:53:48;11.10;26.00
16479;DHT22;8350;52.316;10.530;2023-05-02T04:56:15;11.10;31.70
16479;DHT22;8350;52.316;10.530;2023-05-02T04:58:42;11.10;24.60
16479;DHT22;8350;52.316;10.530;2023-05-02T05:01:09;11.20;28.30
16479;DHT22;8350;52.316;10.530;2023-05-02T05:03:39;11.20;33.20
16479;DHT22;8350;52.316;10.530;2023-05-02T05:06:09;11.20;37.00
16479;DHT22;8350;52.316;10.530;2023-05-02T05:08:37;11.20;35.80
16479;DHT22;8350;52.316;10.530;2023-05-02T05:11:04;11.20;24.80
16479;DHT22;8350;52.316;10.530;2023-05-02T05:13:31;11.30;26.00
16479;DHT22;8350;52.316;10.530;2023-05-02T05:15:58;11.20;33.90
16479;DHT22;8350;52.316;10.530;2023-05-02T05:18:25;11.20;70.80
16479;DHT22;8350;52.316;10.530;2023-05-02T05:20:52;11.10;99.90
16479;DHT22;8350;52.316;10.530;2023-05-02T05:23:20;11.10;99.90
16479;DHT22;8350;52.316;10.530;2023-05-02T05:25:48;11.10;99.90
16479;DHT22;8350;52.316;10.530;2023-05-02T05:28:15;11.10;99.90
16479;DHT22;8350;52.316;10.530;2023-05-02T05:30:43;11.20;99.90
16479;DHT22;8350;52.316;10.530;2023-05-02T05:33:09;11.20;99.90
16479;DHT22;8350;52.316;10.530;2023-05-02T05:35:36;11.10;99.90
16479;DHT22;8350;52.316;10.530;2023-05-02T05:38:06;11.10;99.90
16479;DHT22;8350;52.316;10.530;2023-05-02T05:40:35;11.00;99.90
16479;DHT22;8350;52.316;10.530;2023-05-02T05:43:02;10.90;99.90
16479;DHT22;8350;52.316;10.530;2023-05-02T05:45:29;10.90;99.90
16479;DHT22;8350;52.316;10.530;2023-05-02T05:47:56;10.90;99.90
16479;DHT22;8350;52.316;10.530;2023-05-02T05:50:23;10.80;99.90
16479;DHT22;8350;52.316;10.530;2023-05-02T05:52:50;10.70;99.90
16479;DHT22;8350;52.316;10.530;2023-05-02T05:55:17;10.70;99.90
16479;DHT22;8350;52.316;10.530;2023-05-02T05:57:45;10.60;99.90
16479;DHT22;8350;52.316;10.530;2023-05-02T06:00:13;10.60;99.90
16479;DHT22;8350;52.316;10.530;2023-05-02T06:02:41;10.50;99.90
16479;DHT22;8350;52.316;10.530;2023-05-02T06:05:08;10.50;99.90
16479;DHT22;8350;52.316;10.530;2023-05-02T06:07:35;10.40;99.90
16479;DHT22;8350;52.316;10.530;2023-05-02T06:10:02;10.40;99.90
16479;DHT22;8350;52.316;10.530;2023-05-02T06:12:30;10.40;99.90
16479;DHT22;8350;52.316;10.530;2023-05-02T06:15:00;10.40;99.90
16479;DHT22;8350;52.316;10.530;2023-05-02T06:17:27;10.40;99.90
16479;DHT22;8350;52.316;10.530;2023-05-02T06:19:54;10.40;99.90
16479;DHT22;8350;52.316;10.530;2023-05-02T06:22:21;10.40;99.90
16479;DHT22;8350;52.316;10.530;2023-05-02T06:24:48;10.30;99.90
16479;DHT22;8350;52.316;10.530;2023-05-02T06:27:15;10.30;99.90
16479;DHT22;8350;52.316;10.530;2023-05-02T06:29:42;10.10;99.90
16479;DHT22;8350;52.316;10.530;2023-05-02T06:32:10;9.90;99.90
16479;DHT22;8350;52.316;10.530;2023-05-02T06:34:37;9.80;99.90
16479;DHT22;8350;52.316;10.530;2023-05-02T06:37:04;9.70;99.90
16479;DHT22;8350;52.316;10.530;2023-05-02T06:39:32;9.70;99.90
16479;DHT22;8350;52.316;10.530;2023-05-02T06:41:59;9.50;99.90
16479;DHT22;8350;52.316;10.530;2023-05-02T06:44:26;9.50;99.90
16479;DHT22;8350;52.316;10.530;2023-05-02T06:46:54;9.50;99.90
16479;DHT22;8350;52.316;10.530;2023-05-02T06:49:23;9.50;99.90
16479;DHT22;8350;52.316;10.530;2023-05-02T06:51:50;9.30;99.90
16479;DHT22;8350;52.316;10.530;2023-05-02T06:54:17;9.20;99.90
16479;DHT22;8350;52.316;10.530;2023-05-02T06:56:44;9.20;99.90
16479;DHT22;8350;52.316;10.530;2023-05-02T06:59:11;9.20;99.90
16479;DHT22;8350;52.316;10.530;2023-05-02T07:01:38;9.10;99.90
16479;DHT22;8350;52.316;10.530;2023-05-02T07:04:05;9.00;99.90
16479;DHT22;8350;52.316;10.530;2023-05-02T07:06:33;8.90;99.90
16479;DHT22;8350;52.316;10.530;2023-05-02T07:09:03;8.90;99.90
16479;DHT22;8350;52.316;10.530;2023-05-02T07:11:30;8.90;99.90
16479;DHT22;8350;52.316;10.530;2023-05-02T07:13:57;9.10;99.90
16479;DHT22;8350;52.316;10.530;2023-05-02T07:16:24;9.20;99.90
16479;DHT22;8350;52.316;10.530;2023-05-02T07:18:51;9.30;99.90
16479;DHT22;8350;52.316;10.530;2023-05-02T07:21:18;9.50;99.90
16479;DHT22;8350;52.316;10.530;2023-05-02T07:23:46;9.40;99.90
16479;DHT22;8350;52.316;10.530;2023-05-02T07:26:13;9.30;99.90
16479;DHT22;8350;52.316;10.530;2023-05-02T07:28:40;9.30;99.90
16479;DHT22;8350;52.316;10.530;2023-05-02T07:31:10;9.30;99.90
16479;DHT22;8350;52.316;10.530;2023-05-02T07:33:37;9.30;99.90
16479;DHT22;8350;52.316;10.530;2023-05-02T07:36:04;9.30;99.90
16479;DHT22;8350;52.316;10.530;2023-05-02T07:38:31;9.20;99.90
16479;DHT22;8350;52.316;10.530;2023-05-02T07:40:59;9.20;99.90
16479;DHT22;8350;52.316;10.530;2023-05-02T07:43:28;9.20;99.90
16479;DHT22;8350;52.316;10.530;2023-05-02T07:45:55;9.20;99.90
16479;DHT22;8350;52.316;10.530;2023-05-02T07:48:22;9.30;99.90
16479;DHT22;8350;52.316;10.530;2023-05-02T07:50:49;9.40;99.90
16479;DHT22;8350;52.316;10.530;2023-05-02T07:53:16;9.60;99.90
16479;DHT22;8350;52.316;10.530;2023-05-02T07:55:44;9.70;91.50
16479;DHT22;8350;52.316;10.530;2023-05-02T07:58:14;9.60;69.60
16479;DHT22;8350;52.316;10.530;2023-05-02T08:00:41;9.50;29.80
16479;DHT22;8350;52.316;10.530;2023-05-02T08:03:08;9.50;31.80
16479;DHT22;8350;52.316;10.530;2023-05-02T08:05:35;9.50;35.90
16479;DHT22;8350;52.316;10.530;2023-05-02T08:08:02;9.70;95.70
16479;DHT22;8350;52.316;10.530;2023-05-02T08:10:29;9.80;69.30
16479;DHT22;8350;52.316;10.530;2023-05-02T08:12:56;9.90;1.00
16479;DHT22;8350;52.316;10.530;2023-05-02T08:15:24;10.00;1.00
16479;DHT22;8350;52.316;10.530;2023-05-02T08:17:51;10.10;1.00
16479;DHT22;8350;52.316;10.530;2023-05-02T08:20:19;10.10;1.00
16479;DHT22;8350;52.316;10.530;2023-05-02T08:22:46;10.30;1.00
16479;DHT22;8350;52.316;10.530;2023-05-02T08:25:13;10.40;1.00
16479;DHT22;8350;52.316;10.530;2023-05-02T08:27:44;10.20;1.00
16479;DHT22;8350;52.316;10.530;2023-05-02T08:30:12;10.50;1.00
16479;DHT22;8350;52.316;10.530;2023-05-02T08:32:40;10.60;1.00
16479;DHT22;8350;52.316;10.530;2023-05-02T08:35:07;10.70;1.00
16479;DHT22;8350;52.316;10.530;2023-05-02T08:37:34;10.80;1.00
16479;DHT22;8350;52.316;10.530;2023-05-02T08:40:02;10.70;1.00
16479;DHT22;8350;52.316;10.530;2023-05-02T08:42:30;10.60;1.00
16479;DHT22;8350;52.316;10.530;2023-05-02T08:44:58;10.50;1.00
16479;DHT22;8350;52.316;10.530;2023-05-02T08:47:26;10.40;1.00
16479;DHT22;8350;52.316;10.530;2023-05-02T08:49:58;10.50;1.00
16479;DHT22;8350;52.316;10.530;2023-05-02T08:52:26;10.80;1.00
16479;DHT22;8350;52.316;10.530;2023-05-02T08:54:53;10.90;1.00
16479;DHT22;8350;52.316;10.530;2023-05-02T08:57:21;11.20;1.00
16479;DHT22;8350;52.316;10.530;2023-05-02T08:59:48;11.30;1.00
16479;DHT22;8350;52.316;10.530;2023-05-02T09:02:24;11.30;1.00
16479;DHT22;8350;52.316;10.530;2023-05-02T09:04:57;11.30;1.00
16479;DHT22;8350;52.316;10.530;2023-05-02T09:07:27;11.30;1.00
16479;DHT22;8350;52.316;10.530;2023-05-02T09:09:54;11.30;1.00
16479;DHT22;8350;52.316;10.530;2023-05-02T09:12:24;11.30;1.00
16479;DHT22;8350;52.316;10.530;2023-05-02T09:15:10;11.20;1.00
16479;DHT22;8350;52.316;10.530;2023-05-02T09:17:41;11.10;1.00
16479;DHT22;8350;52.316;10.530;2023-05-02T09:20:12;10.80;1.00
16479;DHT22;8350;52.316;10.530;2023-05-02T09:22:47;10.80;1.00
16479;DHT22;8350;52.316;10.530;2023-05-02T09:25:18;10.90;1.00
16479;DHT22;8350;52.316;10.530;2023-05-02T09:27:49;10.60;1.00
16479;DHT22;8350;52.316;10.530;2023-05-02T09:30:18;10.50;1.00
16479;DHT22;8350;52.316;10.530;2023-05-02T09:32:45;10.50;1.00
16479;DHT22;8350;52.316;10.530;2023-05-02T09:35:14;10.50;1.00
16479;DHT22;8350;52.316;10.530;2023-05-02T09:37:53;10.40;1.00
16479;DHT22;8350;52.316;10.530;2023-05-02T09:40:20;10.50;1.00
16479;DHT22;8350;52.316;10.530;2023-05-02T09:42:47;10.50;1.00
16479;DHT22;8350;52.316;10.530;2023-05-02T09:45:21;10.70;1.00
16479;DHT22;8350;52.316;10.530;2023-05-02T09:47:49;10.70;1.00
16479;DHT22;8350;52.316;10.530;2023-05-02T09:50:36;10.80;1.00
16479;DHT22;8350;52.316;10.530;2023-05-02T09:53:04;10.80;1.00
16479;DHT22;8350;52.316;10.530;2023-05-02T09:55:31;10.80;1.00
16479;DHT22;8350;52.316;10.530;2023-05-02T09:57:59;10.80;1.00
16479;DHT22;8350;52.316;10.530;2023-05-02T10:00:45;10.80;1.00
16479;DHT22;8350;52.316;10.530;2023-05-02T10:03:15;10.50;1.00
16479;DHT22;8350;52.316;10.530;2023-05-02T10:05:49;10.50;1.00
16479;DHT22;8350;52.316;10.530;2023-05-02T10:08:18;10.60;1.00
16479;DHT22;8350;52.316;10.530;2023-05-02T10:10:53;10.60;99.90
16479;DHT22;8350;52.316;10.530;2023-05-02T10:13:26;10.60;1.00
16479;DHT22;8350;52.316;10.530;2023-05-02T10:15:59;10.80;99.90
16479;DHT22;8350;52.316;10.530;2023-05-02T10:18:32;10.90;99.90
16479;DHT22;8350;52.316;10.530;2023-05-02T10:21:05;11.10;99.90
16479;DHT22;8350;52.316;10.530;2023-05-02T10:23:34;11.30;99.90
16479;DHT22;8350;52.316;10.530;2023-05-02T10:26:03;11.30;99.90
16479;DHT22;8350;52.316;10.530;2023-05-02T10:28:30;11.20;99.90
16479;DHT22;8350;52.316;10.530;2023-05-02T10:31:00;11.20;99.90
16479;DHT22;8350;52.316;10.530;2023-05-02T10:33:37;11.30;99.90
16479;DHT22;8350;52.316;10.530;2023-05-02T10:36:23;11.40;99.90
16479;DHT22;8350;52.316;10.530;2023-05-02T10:38:50;11.30;99.90
16479;DHT22;8350;52.316;10.530;2023-05-02T10:41:20;11.50;99.90
16479;DHT22;8350;52.316;10.530;2023-05-02T10:43:52;11.50;41.00
16479;DHT22;8350;52.316;10.530;2023-05-02T10:46:32;11.70;99.90
16479;DHT22;8350;52.316;10.530;2023-05-02T10:49:00;11.80;1.00
16479;DHT22;8350;52.316;10.530;2023-05-02T10:51:29;11.90;1.00
16479;DHT22;8350;52.316;10.530;2023-05-02T10:54:21;11.80;1.00
16479;DHT22;8350;52.316;10.530;2023-05-02T10:57:05;12.10;1.00
16479;DHT22;8350;52.316;10.530;2023-05-02T10:59:34;12.10;1.00
16479;DHT22;8350;52.316;10.530;2023-05-02T11:02:02;12.00;1.00
16479;DHT22;8350;52.316;10.530;2023-05-02T11:04:58;11.70;1.00
16479;DHT22;8350;52.316;10.530;2023-05-02T11:07:27;11.90;43.30
16479;DHT22;8350;52.316;10.530;2023-05-02T11:10:25;11.80;1.00
16479;DHT22;8350;52.316;10.530;2023-05-02T11:12:57;11.60;1.00
16479;DHT22;8350;52.316;10.530;2023-05-02T11:15:53;11.40;1.00
16479;DHT22;8350;52.316;10.530;2023-05-02T11:18:21;11.50;1.00
16479;DHT22;8350;52.316;10.530;2023-05-02T11:20:48;11.50;1.00
16479;DHT22;8350;52.316;10.530;2023-05-02T11:23:21;11.60;39.50
16479;DHT22;8350;52.316;10.530;2023-05-02T11:25:50;11.50;1.00
16479;DHT22;8350;52.316;10.530;2023-05-02T11:28:40;11.50;1.00
16479;DHT22;8350;52.316;10.530;2023-05-02T11:31:08;11.90;42.90
16479;DHT22;8350;52.316;10.530;2023-05-02T11:33:35;12.20;1.00
16479;DHT22;8350;52.316;10.530;2023-05-02T11:36:03;12.20;1.00
16479;DHT22;8350;52.316;10.530;2023-05-02T11:38:36;12.20;1.00
16479;DHT22;8350;52.316;10.530;2023-05-02T11:41:04;12.10;99.90
16479;DHT22;8350;52.316;10.530;2023-05-02T11:43:31;12.00;1.00
16479;DHT22;8350;52.316;10.530;2023-05-02T11:45:59;12.00;1.00
16479;DHT22;8350;52.316;10.530;2023-05-02T11:48:26;12.00;1.00
16479;DHT22;8350;52.316;10.530;2023-05-02T11:50:55;12.10;1.00
16479;DHT22;8350;52.316;10.530;2023-05-02T11:53:23;12.10;1.00
16479;DHT22;8350;52.316;10.530;2023-05-02T11:55:56;12.30;1.00
16479;DHT22;8350;52.316;10.530;2023-05-02T11:58:24;12.50;99.90
16479;DHT22;8350;52.316;10.530;2023-05-02T12:00:54;12.20;99.90
16479;DHT22;8350;52.316;10.530;2023-05-02T12:03:27;12.20;1.00
16479;DHT22;8350;52.316;10.530;2023-05-02T12:05:55;12.30;99.90
16479;DHT22;8350;52.316;10.530;2023-05-02T12:08:24;12.10;99.90
16479;DHT22;8350;52.316;10.530;2023-05-02T12:10:54;12.40;1.00
16479;DHT22;8350;52.316;10.530;2023-05-02T12:13:23;12.50;1.00
16479;DHT22;8350;52.316;10.530;2023-05-02T12:15:51;12.50;99.90
16479;DHT22;8350;52.316;10.530;2023-05-02T12:18:21;12.50;99.90
16479;DHT22;8350;52.316;10.530;2023-05-02T12:20:49;12.60;1.00
16479;DHT22;8350;52.316;10.530;2023-05-02T12:23:18;12.90;99.90
16479;DHT22;8350;52.316;10.530;2023-05-02T12:25:45;12.90;39.60
16479;DHT22;8350;52.316;10.530;2023-05-02T12:28:16;12.60;1.00
16479;DHT22;8350;52.316;10.530;2023-05-02T12:30:46;12.40;99.90
16479;DHT22;8350;52.316;10.530;2023-05-02T12:33:13;12.50;99.90
16479;DHT22;8350;52.316;10.530;2023-05-02T12:35:41;12.60;99.90
16479;DHT22;8350;52.316;10.530;2023-05-02T12:38:14;12.70;96.90
16479;DHT22;8350;52.316;10.530;2023-05-02T12:40:47;12.50;1.00
16479;DHT22;8350;52.316;10.530;2023-05-02T12:43:16;12.00;1.00
16479;DHT22;8350;52.316;10.530;2023-05-02T12:45:46;11.90;1.00
16479;DHT22;8350;52.316;10.530;2023-05-02T12:48:21;12.10;1.00
16479;DHT22;8350;52.316;10.530;2023-05-02T12:50:49;12.10;99.90
16479;DHT22;8350;52.316;10.530;2023-05-02T12:53:16;12.20;1.00
16479;DHT22;8350;52.316;10.530;2023-05-02T12:55:43;12.50;1.00
16479;DHT22;8350;52.316;10.530;2023-05-02T12:58:11;12.70;99.90
16479;DHT22;8350;52.316;10.530;2023-05-02T13:00:41;13.00;1.00
16479;DHT22;8350;52.316;10.530;2023-05-02T13:03:10;13.50;1.00
16479;DHT22;8350;52.316;10.530;2023-05-02T13:05:37;13.50;68.00
16479;DHT22;8350;52.316;10.530;2023-05-02T13:08:04;13.50;1.00
16479;DHT22;8350;52.316;10.530;2023-05-02T13:10:31;13.90;99.90
16479;DHT22;8350;52.316;10.530;2023-05-02T13:12:58;14.20;1.00
16479;DHT22;8350;52.316;10.530;2023-05-02T13:15:26;14.20;1.00
16479;DHT22;8350;52.316;10.530;2023-05-02T13:17:54;14.40;99.90
16479;DHT22;8350;52.316;10.530;2023-05-02T13:20:21;14.30;1.00
16479;DHT22;8350;52.316;10.530;2023-05-02T13:22:48;14.40;1.00
16479;DHT22;8350;52.316;10.530;2023-05-02T13:25:17;14.50;1.00
16479;DHT22;8350;52.316;10.530;2023-05-02T13:27:44;14.40;99.90
16479;DHT22;8350;52.316;10.530;2023-05-02T13:30:11;14.10;1.00
16479;DHT22;8350;52.316;10.530;2023-05-02T13:32:38;14.30;99.90
16479;DHT22;8350;52.316;10.530;2023-05-02T13:35:10;14.60;99.90
16479;DHT22;8350;52.316;10.530;2023-05-02T13:37:38;14.70;99.90
16479;DHT22;8350;52.316;10.530;2023-05-02T13:40:07;15.00;99.90
16479;DHT22;8350;52.316;10.530;2023-05-02T13:42:34;14.90;1.00
16479;DHT22;8350;52.316;10.530;2023-05-02T13:45:01;14.30;99.90
16479;DHT22;8350;52.316;10.530;2023-05-02T13:47:29;14.00;1.00
16479;DHT22;8350;52.316;10.530;2023-05-02T13:49:56;13.80;1.00
16479;DHT22;8350;52.316;10.530;2023-05-02T13:52:24;13.80;1.00
16479;DHT22;8350;52.316;10.530;2023-05-02T13:54:51;14.00;99.90
16479;DHT22;8350;52.316;10.530;2023-05-02T13:57:18;14.40;99.90
16479;DHT22;8350;52.316;10.530;2023-05-02T13:59:53;14.70;99.90
16479;DHT22;8350;52.316;10.530;2023-05-02T14:02:20;14.70;99.90
16479;DHT22;8350;52.316;10.530;2023-05-02T14:04:50;14.30;99.90
16479;DHT22;8350;52.316;10.530;2023-05-02T14:07:17;14.60;1.00
16479;DHT22;8350;52.316;10.530;2023-05-02T14:09:45;14.70;1.00
16479;DHT22;8350;52.316;10.530;2023-05-02T14:12:12;14.80;1.00
16479;DHT22;8350;52.316;10.530;2023-05-02T14:14:39;14.60;1.00
16479;DHT22;8350;52.316;10.530;2023-05-02T14:17:06;14.30;99.90
16479;DHT22;8350;52.316;10.530;2023-05-02T14:19:37;14.40;1.00
16479;DHT22;8350;52.316;10.530;2023-05-02T14:22:04;14.60;1.00
16479;DHT22;8350;52.316;10.530;2023-05-02T14:24:31;14.70;1.00
16479;DHT22;8350;52.316;10.530;2023-05-02T14:27:00;14.40;99.90
16479;DHT22;8350;52.316;10.530;2023-05-02T14:29:27;14.10;99.90
16479;DHT22;8350;52.316;10.530;2023-05-02T14:31:54;13.70;99.90
16479;DHT22;8350;52.316;10.530;2023-05-02T14:34:21;13.20;1.00
16479;DHT22;8350;52.316;10.530;2023-05-02T14:36:51;13.10;1.00
16479;DHT22;8350;52.316;10.530;2023-05-02T14:39:18;13.10;99.90
16479;DHT22;8350;52.316;10.530;2023-05-02T14:41:48;13.40;99.90
16479;DHT22;8350;52.316;10.530;2023-05-02T14:44:17;13.40;1.00
16479;DHT22;8350;52.316;10.530;2023-05-02T14:46:44;13.10;1.00
16479;DHT22;8350;52.316;10.530;2023-05-02T14:49:19;12.90;1.00
16479;DHT22;8350;52.316;10.530;2023-05-02T14:51:46;12.80;99.90
16479;DHT22;8350;52.316;10.530;2023-05-02T14:54:13;12.60;99.40
16479;DHT22;8350;52.316;10.530;2023-05-02T14:56:42;12.50;99.90
16479;DHT22;8350;52.316;10.530;2023-05-02T14:59:15;12.60;99.90
16479;DHT22;8350;52.316;10.530;2023-05-02T15:01:50;12.70;1.00
16479;DHT22;8350;52.316;10.530;2023-05-02T15:04:19;13.00;1.00
16479;DHT22;8350;52.316;10.530;2023-05-02T15:06:46;13.30;1.00
16479;DHT22;8350;52.316;10.530;2023-05-02T15:09:13;13.50;1.00
16479;DHT22;8350;52.316;10.530;2023-05-02T15:11:40;13.70;1.00
16479;DHT22;8350;52.316;10.530;2023-05-02T15:14:07;13.90;1.00
16479;DHT22;8350;52.316;10.530;2023-05-02T15:16:34;13.70;1.00
16479;DHT22;8350;52.316;10.530;2023-05-02T15:19:05;13.70;99.90
16479;DHT22;8350;52.316;10.530;2023-05-02T15:21:32;13.70;99.90
16479;DHT22;8350;52.316;10.530;2023-05-02T15:23:59;13.60;1.00
16479;DHT22;8350;52.316;10.530;2023-05-02T15:26:27;13.40;99.90
16479;DHT22;8350;52.316;10.530;2023-05-02T15:29:01;13.20;1.00
16479;DHT22;8350;52.316;10.530;2023-05-02T15:31:30;12.90;1.00
16479;DHT22;8350;52.316;10.530;2023-05-02T15:33:58;12.70;1.00
16479;DHT22;8350;52.316;10.530;2023-05-02T15:36:27;12.40;99.90
16479;DHT22;8350;52.316;10.530;2023-05-02T15:38:54;12.20;1.00
16479;DHT22;8350;52.316;10.530;2023-05-02T15:41:23;12.20;59.80
16479;DHT22;8350;52.316;10.530;2023-05-02T15:43:51;12.20;1.00
16479;DHT22;8350;52.316;10.530;2023-05-02T15:46:18;12.20;99.90
16479;DHT22;8350;52.316;10.530;2023-05-02T15:48:45;12.00;1.00
16479;DHT22;8350;52.316;10.530;2023-05-02T15:51:12;12.00;1.00
16479;DHT22;8350;52.316;10.530;2023-05-02T15:53:41;12.10;1.00
16479;DHT22;8350;52.316;10.530;2023-05-02T15:56:09;11.90;1.00